Time;durP1;ratioP1;P1;durP2;ratioP2;P2;SDS_P1;SDS_P2;PMS_P1;PMS_P2;Temp;Humidity;BMP_temperature;BMP_pressure;BME280_temperature;BME280_humidity;BME280_pressure;Samples;Min_cycle;Max_cycle;Signal;HPM_P1;HPM_P2
2021/04/21 00:01:20;;;;;;;4.22;2.90;;;21.20;44.20;;;;;;5036576;28;20099;-49
2021/04/21 00:03:46;;;;;;;3.88;3.03;;;21.20;44.80;;;;;;5036234;28;20026;-49
2021/04/21 00:06:16;;;;;;;5.07;3.17;;;21.10;44.10;;;;;;5035994;28;20471;-45
2021/04/21 00:08:43;;;;;;;4.15;2.65;;;21.20;44.10;;;;;;5036025;28;20029;-46
2021/04/21 00:11:10;;;;;;;3.92;3.25;;;21.20;44.10;;;;;;5035724;28;20033;-53
2021/04/21 00:13:36;;;;;;;3.20;2.45;;;21.20;44.10;;;;;;5035839;28;20044;-49
2021/04/21 00:16:02;;;;;;;4.82;2.63;;;21.20;44.10;;;;;;5035551;28;20441;-53
2021/04/21 00:18:28;;;;;;;3.35;3.00;;;21.20;44.10;;;;;;5036111;28;20104;-51
2021/04/21 00:20:58;;;;;;;3.67;2.75;;;21.10;44.00;;;;;;5035569;28;20505;-52
2021/04/21 00:23:25;;;;;;;4.10;2.90;;;21.10;44.00;;;;;;5035658;28;20021;-54
2021/04/21 00:25:53;;;;;;;2.90;2.55;;;21.10;44.00;;;;;;5035609;28;20033;-54
2021/04/21 00:28:22;;;;;;;3.45;2.80;;;21.10;44.00;;;;;;5035539;28;20358;-51
2021/04/21 00:30:48;;;;;;;4.35;2.88;;;21.10;44.00;;;;;;5035583;28;20061;-54
2021/04/21 00:33:17;;;;;;;3.80;2.92;;;21.10;44.00;;;;;;5035275;28;20041;-52
2021/04/21 00:35:45;;;;;;;3.33;2.55;;;21.10;43.90;;;;;;5035435;28;20115;-54
2021/04/21 00:38:17;;;;;;;3.03;2.67;;;21.10;43.90;;;;;;5035425;28;20029;-54
2021/04/21 00:40:56;;;;;;;6.25;3.25;;;21.10;43.90;;;;;;5035629;28;20017;-56
2021/04/21 00:43:46;;;;;;;4.60;2.85;;;21.10;43.90;;;;;;5035648;28;20025;-53
2021/04/21 00:46:18;;;;;;;2.75;2.42;;;21.00;43.80;;;;;;5035360;28;20045;-53
2021/04/21 00:49:03;;;;;;;3.03;2.45;;;21.00;43.80;;;;;;5035224;28;20022;-52
2021/04/21 00:51:35;;;;;;;5.85;3.13;;;21.00;43.80;;;;;;5035580;28;20045;-50
2021/04/21 00:54:18;;;;;;;3.28;2.53;;;21.00;43.80;;;;;;5035013;28;20025;-54
2021/04/21 00:57:19;;;;;;;4.60;2.90;;;21.00;43.80;;;;;;5034842;28;20026;-51
2021/04/21 00:59:59;;;;;;;2.63;2.38;;;21.00;43.80;;;;;;5034687;28;20487;-49
2021/04/21 01:02:32;;;;;;;4.82;2.78;;;20.90;43.80;;;;;;5034942;28;20049;-51
2021/04/21 01:04:58;;;;;;;;;;;21.00;43.80;;;;;;5034920;28;20021;-50
2021/04/21 01:07:26;;;;;;;3.72;2.60;;;20.90;43.70;;;;;;5035352;28;19967;-50
2021/04/21 01:09:54;;;;;;;3.33;2.53;;;20.90;43.70;;;;;;5034342;28;20403;-52
2021/04/21 01:12:22;;;;;;;2.50;2.30;;;20.90;43.70;;;;;;5034755;28;20021;-50
2021/04/21 01:14:50;;;;;;;3.45;2.83;;;20.90;43.70;;;;;;5035483;28;20030;-51
2021/04/21 01:17:18;;;;;;;2.83;2.33;;;20.90;43.70;;;;;;5034415;28;20826;-48
2021/04/21 01:19:58;;;;;;;2.85;2.42;;;20.90;43.60;;;;;;5034941;28;20045;-47
2021/04/21 01:23:00;;;;;;;3.40;2.50;;;20.90;43.60;;;;;;5034824;28;20055;-52
2021/04/21 01:25:41;;;;;;;3.22;2.80;;;20.90;43.60;;;;;;5030562;28;20164;-50
2021/04/21 01:28:28;;;;;;;3.30;2.10;;;20.90;43.60;;;;;;5034497;28;20031;-50
2021/04/21 01:30:55;;;;;;;3.85;2.20;;;20.90;43.60;;;;;;5034572;28;20380;-50
2021/04/21 01:33:23;;;;;;;2.38;2.17;;;20.90;43.70;;;;;;5034388;28;20021;-52
2021/04/21 01:36:00;;;;;;;3.78;2.35;;;20.90;43.70;;;;;;5034514;28;20056;-49
2021/04/21 01:38:27;;;;;;;2.95;2.30;;;20.80;43.50;;;;;;5034428;28;20014;-51
2021/04/21 01:40:56;;;;;;;3.30;2.75;;;20.80;43.50;;;;;;5033971;28;20468;-52
2021/04/21 01:43:28;;;;;;;3.42;2.35;;;20.90;43.50;;;;;;5033495;28;20398;-52
2021/04/21 01:45:58;;;;;;;6.13;2.53;;;20.80;43.50;;;;;;5034018;28;20503;-46
2021/04/21 01:48:26;;;;;;;3.08;2.50;;;20.80;43.50;;;;;;5033457;28;20021;-50
2021/04/21 01:50:53;;;;;;;3.35;2.75;;;20.90;43.40;;;;;;5034304;28;20124;-51
2021/04/21 01:53:30;;;;;;;2.60;2.22;;;20.80;43.40;;;;;;5034064;28;20021;-51
2021/04/21 01:56:15;;;;;;;3.35;2.70;;;20.80;43.40;;;;;;5034237;28;20033;-49
2021/04/21 01:58:52;;;;;;;4.28;2.55;;;20.80;43.40;;;;;;5034119;28;20424;-50
2021/04/21 02:01:32;;;;;;;3.95;2.75;;;20.80;43.40;;;;;;5033757;28;20021;-49
2021/04/21 02:04:09;;;;;;;2.85;2.55;;;20.80;43.30;;;;;;5033894;28;20394;-48
2021/04/21 02:06:54;;;;;;;3.35;2.35;;;20.80;43.30;;;;;;5033069;28;20356;-49
2021/04/21 02:09:38;;;;;;;2.85;2.33;;;20.80;43.30;;;;;;5033546;28;20425;-48
2021/04/21 02:12:35;;;;;;;3.25;2.40;;;20.70;43.20;;;;;;5033631;28;20037;-52
2021/04/21 02:15:13;;;;;;;3.47;2.42;;;20.70;43.20;;;;;;5033781;28;20075;-49
2021/04/21 02:17:46;;;;;;;3.65;2.58;;;20.70;43.20;;;;;;5033532;28;20114;-54
2021/04/21 02:20:19;;;;;;;3.50;2.88;;;20.70;43.30;;;;;;5033726;28;20048;-53
2021/04/21 02:23:02;;;;;;;3.65;2.70;;;20.70;43.30;;;;;;5033759;28;20025;-49
2021/04/21 02:26:15;;;;;;;2.53;2.20;;;20.70;43.30;;;;;;5033447;28;20025;-51
2021/04/21 02:28:49;;;;;;;4.43;2.25;;;20.70;43.20;;;;;;4989434;28;20292;-51
2021/04/21 02:31:18;;;;;;;5.78;2.50;;;20.70;43.20;;;;;;5032794;28;20069;-51
2021/04/21 02:34:09;;;;;;;3.92;2.63;;;20.70;43.20;;;;;;5033189;28;20037;-52
2021/04/21 02:36:52;;;;;;;4.07;2.20;;;20.60;43.20;;;;;;5033168;28;20057;-51
2021/04/21 02:39:23;;;;;;;2.85;2.53;;;20.70;43.30;;;;;;5033762;28;20022;-50
2021/04/21 02:42:09;;;;;;;3.38;2.33;;;20.70;43.20;;;;;;5033428;28;20025;-48
2021/04/21 02:45:00;;;;;;;2.90;2.40;;;20.60;43.20;;;;;;5032344;28;20059;-51
2021/04/21 02:47:48;;;;;;;2.97;2.28;;;20.60;43.10;;;;;;5033543;28;20067;-50
2021/04/21 02:50:44;;;;;;;3.95;2.72;;;20.60;43.10;;;;;;5020269;28;20131;-51
2021/04/21 02:53:15;;;;;;;5.93;2.83;;;20.60;43.20;;;;;;5033027;28;20033;-47
2021/04/21 02:56:14;;;;;;;4.65;2.83;;;20.60;43.10;;;;;;5033189;28;20100;-51
2021/04/21 02:58:58;;;;;;;2.60;2.40;;;20.60;43.10;;;;;;5032987;28;20415;-47
2021/04/21 03:01:32;;;;;;;3.28;2.65;;;20.60;43.10;;;;;;5033088;28;20026;-47
2021/04/21 03:04:14;;;;;;;3.88;3.13;;;20.50;43.00;;;;;;5032319;28;20024;-49
2021/04/21 03:06:47;;;;;;;4.03;2.83;;;20.50;43.20;;;;;;5032874;28;20029;-49
2021/04/21 03:09:17;;;;;;;3.45;2.65;;;20.50;43.30;;;;;;5032922;28;20108;-45
2021/04/21 03:11:44;;;;;;;3.47;3.15;;;20.50;42.80;;;;;;5031898;28;20029;-48
2021/04/21 03:14:22;;;;;;;4.53;2.90;;;20.50;42.70;;;;;;5033024;28;20028;-47
2021/04/21 03:16:50;;;;;;;3.17;2.65;;;20.50;42.80;;;;;;5033007;28;20022;-48
2021/04/21 03:19:20;;;;;;;3.13;2.60;;;20.50;42.90;;;;;;5035310;28;20644;-46
2021/04/21 03:21:58;;;;;;;2.75;2.55;;;20.50;42.90;;;;;;5036531;28;20087;-47
2021/04/21 03:24:28;;;;;;;4.65;2.75;;;20.50;42.90;;;;;;5037102;28;20029;-48
2021/04/21 03:26:58;;;;;;;4.90;2.65;;;20.40;42.90;;;;;;5036760;28;20026;-45
2021/04/21 03:29:31;;;;;;;4.30;2.92;;;20.40;43.20;;;;;;5036612;28;20086;-50
2021/04/21 03:32:02;;;;;;;3.50;2.60;;;20.40;42.90;;;;;;5036947;28;20348;-46
2021/04/21 03:34:29;;;;;;;2.75;2.45;;;20.50;42.90;;;;;;5036643;28;20100;-46
2021/04/21 03:36:56;;;;;;;3.08;2.55;;;20.40;42.90;;;;;;5036562;28;20052;-46
2021/04/21 03:39:21;;;;;;;3.42;2.10;;;20.40;42.90;;;;;;5036549;28;20025;-46
2021/04/21 03:41:47;;;;;;;3.42;2.75;;;20.40;42.90;;;;;;5036503;28;20083;-49
2021/04/21 03:44:13;;;;;;;6.50;3.00;;;20.40;42.90;;;;;;5036940;28;20022;-50
2021/04/21 03:46:41;;;;;;;4.22;2.80;;;20.40;42.90;;;;;;5036375;28;20048;-51
2021/04/21 03:49:10;;;;;;;4.90;2.63;;;20.40;42.80;;;;;;5036267;28;20403;-45
2021/04/21 03:51:36;;;;;;;2.50;2.30;;;20.40;42.90;;;;;;5036011;28;20359;-48
2021/04/21 03:54:03;;;;;;;3.78;2.42;;;20.40;42.90;;;;;;5035837;28;20506;-48
2021/04/21 03:56:29;;;;;;;3.13;2.80;;;20.40;42.80;;;;;;5036589;28;20017;-46
2021/04/21 03:58:56;;;;;;;3.00;2.55;;;20.40;42.90;;;;;;5036114;28;20101;-51
2021/04/21 04:01:24;;;;;;;3.22;2.92;;;20.40;42.90;;;;;;5036046;28;20466;-45
2021/04/21 04:03:56;;;;;;;3.95;2.88;;;20.40;42.90;;;;;;5036601;28;20071;-47
2021/04/21 04:06:37;;;;;;;3.20;2.38;;;20.40;42.90;;;;;;5036104;28;20036;-46
2021/04/21 04:09:08;;;;;;;3.47;2.70;;;20.40;43.00;;;;;;5036199;28;20108;-46
2021/04/21 04:11:44;;;;;;;3.97;2.70;;;20.40;42.90;;;;;;5035044;28;20033;-48
2021/04/21 04:14:22;;;;;;;2.88;2.08;;;20.40;43.00;;;;;;5035952;28;20059;-45
2021/04/21 04:16:57;;;;;;;3.17;2.70;;;20.40;43.00;;;;;;5035800;28;20021;-48
2021/04/21 04:19:24;;;;;;;3.00;2.42;;;20.30;42.90;;;;;;5035719;28;20017;-47
2021/04/21 04:22:07;;;;;;;4.28;2.60;;;20.30;42.90;;;;;;5035831;28;20029;-48
2021/04/21 04:24:54;;;;;;;4.07;2.38;;;20.40;43.10;;;;;;5036436;28;20025;-47
2021/04/21 04:27:28;;;;;;;3.58;2.60;;;20.30;43.00;;;;;;5035600;28;20057;-46
2021/04/21 04:29:54;;;;;;;;;;;20.30;43.00;;;;;;5034696;28;20486;-45
2021/04/21 04:32:22;;;;;;;3.50;2.40;;;20.30;43.00;;;;;;5035767;28;20324;-52
2021/04/21 04:34:58;;;;;;;4.13;2.33;;;20.30;43.10;;;;;;5035542;28;20096;-48
2021/04/21 04:37:26;;;;;;;2.92;2.13;;;20.30;43.10;;;;;;5035653;28;20352;-46
2021/04/21 04:39:53;;;;;;;2.58;2.35;;;20.30;43.10;;;;;;5035387;28;20022;-48
2021/04/21 04:42:19;;;;;;;3.03;2.50;;;20.30;43.10;;;;;;5035641;28;20037;-47
2021/04/21 04:44:47;;;;;;;3.28;2.42;;;20.30;43.10;;;;;;5035118;28;20341;-47
2021/04/21 04:47:24;;;;;;;3.55;2.35;;;20.30;43.10;;;;;;5035244;28;20022;-49
2021/04/21 04:50:02;;;;;;;3.15;2.60;;;20.30;43.10;;;;;;5035299;28;20120;-46
2021/04/21 04:52:31;;;;;;;3.15;2.42;;;20.30;43.10;;;;;;5035870;28;20052;-46
2021/04/21 04:55:00;;;;;;;4.68;2.50;;;20.30;43.10;;;;;;5035198;28;20025;-46
2021/04/21 04:57:30;;;;;;;2.58;2.28;;;20.30;43.10;;;;;;5035222;28;20026;-46
2021/04/21 05:00:09;;;;;;;3.90;2.35;;;20.30;43.10;;;;;;5035362;28;20397;-49
2021/04/21 05:02:42;;;;;;;2.50;2.10;;;20.30;43.10;;;;;;5035175;28;20029;-47
2021/04/21 05:05:10;;;;;;;4.63;2.78;;;20.20;43.00;;;;;;5035186;28;20013;-47
2021/04/21 05:07:42;;;;;;;3.90;2.70;;;20.30;43.00;;;;;;5035200;28;20068;-46
2021/04/21 05:10:16;;;;;;;2.58;2.38;;;20.20;43.00;;;;;;5034709;28;20480;-49
2021/04/21 05:12:43;;;;;;;4.38;2.58;;;20.30;43.10;;;;;;5034958;28;20014;-48
2021/04/21 05:15:38;;;;;;;5.35;2.35;;;20.30;43.40;;;;;;5034557;28;20026;-47
2021/04/21 05:18:25;;;;;;;3.40;2.78;;;20.30;43.60;;;;;;5034361;28;20040;-52
2021/04/21 05:23:41;;;;;;;7.70;2.30;;;20.20;43.60;;;;;;5099799;22;20065;-47
2021/04/21 05:26:50;;;;;;;2.70;2.00;;;20.20;43.80;;;;;;5035537;28;20050;-44
2021/04/21 05:29:42;;;;;;;4.70;2.70;;;20.20;44.00;;;;;;5036065;28;20021;-45
2021/04/21 05:32:40;;;;;;;5.95;2.70;;;20.20;44.00;;;;;;5036328;28;20033;-46
2021/04/21 05:35:52;;;;;;;3.67;2.20;;;20.20;44.00;;;;;;5036070;28;20037;-48
2021/04/21 05:38:23;;;;;;;6.75;3.00;;;20.20;44.20;;;;;;5036098;28;20029;-49
2021/04/21 05:41:04;;;;;;;8.30;3.20;;;20.20;44.30;;;;;;5036231;28;20420;-53
2021/04/21 05:43:44;;;;;;;3.95;2.40;;;20.20;44.50;;;;;;5035915;28;20099;-53
2021/04/21 05:46:35;;;;;;;6.32;2.58;;;20.20;44.50;;;;;;5035477;28;20030;-46
2021/04/21 05:49:23;;;;;;;8.38;2.67;;;20.20;44.50;;;;;;5035807;28;20041;-46
2021/04/21 05:52:08;;;;;;;5.95;3.17;;;20.20;44.40;;;;;;4989933;28;20037;-47
2021/04/21 05:54:54;;;;;;;6.85;3.10;;;20.20;44.40;;;;;;5036146;28;20120;-46
2021/04/21 05:57:23;;;;;;;7.05;2.70;;;20.20;44.40;;;;;;5035691;28;20026;-46
2021/04/21 06:00:23;;;;;;;5.65;2.40;;;20.20;44.40;;;;;;5035764;28;20017;-49
2021/04/21 06:02:50;;;;;;;6.35;3.10;;;20.20;45.00;;;;;;5035575;28;20068;-53
2021/04/21 06:05:16;;;;;;;4.03;2.58;;;20.20;44.20;;;;;;5035527;28;20104;-49
2021/04/21 06:07:45;;;;;;;4.43;2.83;;;20.30;44.10;;;;;;5035478;28;20104;-49
2021/04/21 06:10:30;;;;;;;13.60;2.65;;;20.20;44.10;;;;;;5035410;28;20103;-51
2021/04/21 06:13:03;;;;;;;3.45;2.40;;;20.30;44.00;;;;;;5035215;28;20095;-47
2021/04/21 06:15:31;;;;;;;3.35;2.47;;;20.30;43.90;;;;;;5035607;28;20095;-49
2021/04/21 06:17:59;;;;;;;3.13;2.50;;;20.30;43.90;;;;;;5035583;28;20022;-49
2021/04/21 06:20:40;;;;;;;3.15;2.30;;;20.30;43.90;;;;;;5035010;28;20440;-47
2021/04/21 06:23:13;;;;;;;4.32;1.95;;;20.30;43.80;;;;;;5017732;28;20049;-51
2021/04/21 06:25:44;;;;;;;2.97;2.33;;;20.30;43.70;;;;;;5034886;28;20029;-49
2021/04/21 06:28:11;;;;;;;2.95;2.40;;;20.30;43.70;;;;;;5035238;28;20436;-49
2021/04/21 06:30:36;;;;;;;4.03;2.53;;;20.30;43.70;;;;;;5035506;28;20034;-47
2021/04/21 06:33:04;;;;;;;3.65;2.40;;;20.30;43.80;;;;;;5035321;28;20036;-47
2021/04/21 06:35:31;;;;;;;5.53;2.60;;;20.30;43.80;;;;;;5035068;28;20021;-47
2021/04/21 06:37:58;;;;;;;4.47;2.00;;;20.30;44.00;;;;;;5017506;28;20032;-48
2021/04/21 06:40:28;;;;;;;2.50;2.30;;;20.30;44.00;;;;;;5035626;28;20108;-47
2021/04/21 06:42:56;;;;;;;3.45;2.55;;;20.30;44.00;;;;;;5035076;28;20022;-47
2021/04/21 06:45:27;;;;;;;2.20;2.00;;;20.30;43.90;;;;;;5035158;28;20018;-46
2021/04/21 06:47:56;;;;;;;3.22;2.40;;;20.30;43.80;;;;;;5034694;28;20436;-45
2021/04/21 06:50:34;;;;;;;6.43;2.60;;;20.40;43.90;;;;;;5034643;28;20052;-50
2021/04/21 06:53:03;;;;;;;3.30;2.42;;;20.40;43.90;;;;;;5034029;28;20519;-51
2021/04/21 06:55:30;;;;;;;3.65;2.22;;;20.40;44.20;;;;;;5034896;28;20026;-46
2021/04/21 06:57:55;;;;;;;4.10;2.58;;;20.40;44.40;;;;;;5034598;28;20033;-47
2021/04/21 07:00:24;;;;;;;2.50;2.30;;;20.40;44.30;;;;;;5034489;28;20030;-45
2021/04/21 07:02:53;;;;;;;3.63;2.15;;;20.40;44.40;;;;;;5034615;28;20391;-48
2021/04/21 07:05:36;;;;;;;4.40;2.35;;;20.40;44.50;;;;;;5034496;28;20021;-48
2021/04/21 07:08:28;;;;;;;3.50;2.25;;;20.40;44.80;;;;;;5034774;28;20030;-48
2021/04/21 07:10:57;;;;;;;3.47;2.38;;;20.50;45.00;;;;;;5034125;28;20037;-48
2021/04/21 07:13:34;;;;;;;3.15;1.90;;;20.40;44.90;;;;;;5032787;28;20391;-46
2021/04/21 07:16:02;;;;;;;3.70;1.95;;;20.50;45.00;;;;;;5034830;28;20022;-48
2021/04/21 07:18:44;;;;;;;3.20;2.10;;;20.50;45.10;;;;;;5034320;28;20100;-49
2021/04/21 07:21:10;;;;;;;4.70;2.20;;;20.50;45.00;;;;;;5034761;28;20032;-47
2021/04/21 07:23:44;;;;;;;2.08;1.75;;;20.50;45.20;;;;;;5034710;28;20050;-54
2021/04/21 07:26:09;;;;;;;;;;;20.50;45.40;;;;;;5034585;28;20021;-54
2021/04/21 07:28:37;;;;;;;3.17;1.80;;;20.50;45.20;;;;;;5034195;28;19963;-49
2021/04/21 07:31:11;;;;;;;4.15;1.92;;;20.50;45.20;;;;;;5034418;28;20056;-45
2021/04/21 07:33:43;;;;;;;2.30;2.10;;;20.50;45.50;;;;;;5034497;28;20029;-46
2021/04/21 07:36:17;;;;;;;3.67;2.00;;;20.50;45.70;;;;;;5034339;28;20032;-48
2021/04/21 07:38:48;;;;;;;2.90;2.00;;;20.50;45.80;;;;;;5034541;28;20025;-51
2021/04/21 07:41:29;;;;;;;5.80;2.10;;;20.50;46.00;;;;;;5034533;28;20068;-50
2021/04/21 07:43:55;;;;;;;3.88;2.58;;;20.50;46.10;;;;;;5033902;28;20521;-48
2021/04/21 07:46:22;;;;;;;3.00;2.00;;;20.60;46.30;;;;;;5034236;28;20029;-46
2021/04/21 07:48:49;;;;;;;2.28;1.90;;;20.60;46.30;;;;;;5034277;28;20029;-47
2021/04/21 07:51:15;;;;;;;2.50;2.00;;;20.60;46.40;;;;;;5034089;28;20124;-52
2021/04/21 07:53:46;;;;;;;3.95;2.15;;;20.60;46.90;;;;;;5033202;28;20053;-59
2021/04/21 07:56:12;;;;;;;6.13;2.60;;;20.60;45.90;;;;;;5034207;28;20129;-51
2021/04/21 07:58:38;;;;;;;8.18;2.80;;;20.70;46.40;;;;;;5033843;28;20451;-53
2021/04/21 08:01:04;;;;;;;8.55;2.90;;;20.70;46.20;;;;;;5034140;28;20053;-47
2021/04/21 08:03:29;;;;;;;5.15;2.50;;;20.70;45.80;;;;;;5034257;28;20098;-54
2021/04/21 08:05:55;;;;;;;4.57;3.10;;;20.70;45.80;;;;;;5036093;28;20026;-45
2021/04/21 08:08:34;;;;;;;6.10;3.17;;;20.70;45.50;;;;;;5037950;28;20029;-47
2021/04/21 08:11:00;;;;;;;5.28;2.72;;;20.70;45.30;;;;;;5037349;28;20029;-44
2021/04/21 08:13:46;;;;;;;5.78;2.65;;;20.70;45.30;;;;;;5037530;28;20086;-49
2021/04/21 08:16:22;;;;;;;3.65;2.47;;;20.80;45.20;;;;;;5036920;28;20037;-47
2021/04/21 08:18:47;;;;;;;3.50;2.50;;;20.80;45.20;;;;;;5037417;28;20044;-48
2021/04/21 08:21:39;;;;;;;5.22;2.55;;;20.80;45.00;;;;;;5037232;28;20025;-44
2021/04/21 08:24:06;;;;;;;23.17;5.07;;;20.90;45.00;;;;;;5037007;28;20104;-47
2021/04/21 08:26:31;;;;;;;7.22;4.03;;;20.90;43.50;;;;;;5036977;28;20025;-51
2021/04/21 08:28:59;;;;;;;7.80;5.30;;;20.80;43.90;;;;;;5037242;28;20446;-48
2021/04/21 08:31:26;;;;;;;9.98;6.00;;;20.80;43.40;;;;;;5037402;28;20040;-44
2021/04/21 08:33:51;;;;;;;5.10;4.18;;;20.80;43.30;;;;;;5037270;28;20033;-48
2021/04/21 08:36:19;;;;;;;7.82;4.60;;;20.80;44.30;;;;;;5036410;28;20045;-46
2021/04/21 08:38:47;;;;;;;7.85;5.20;;;20.80;45.10;;;;;;5037096;28;20029;-43
2021/04/21 08:41:18;;;;;;;7.32;5.13;;;20.80;43.50;;;;;;5037350;28;20029;-45
2021/04/21 08:43:50;;;;;;;5.45;4.20;;;20.90;42.80;;;;;;5037131;28;20064;-45
2021/04/21 08:46:18;;;;;;;5.45;4.15;;;20.90;43.80;;;;;;5036708;28;20382;-43
2021/04/21 08:48:44;;;;;;;6.63;5.18;;;20.90;44.00;;;;;;5036593;28;20033;-44
2021/04/21 08:51:14;;;;;;;11.52;6.20;;;20.90;44.50;;;;;;5036482;28;20037;-45
2021/04/21 08:53:44;;;;;;;10.48;6.28;;;21.00;42.60;;;;;;5036755;28;20025;-47
2021/04/21 08:56:13;;;;;;;9.95;5.22;;;20.90;42.00;;;;;;5036672;28;20467;-45
2021/04/21 08:58:39;;;;;;;6.53;4.90;;;20.90;42.30;;;;;;5036622;28;20025;-44
2021/04/21 09:01:05;;;;;;;5.65;4.28;;;20.90;42.70;;;;;;5036384;28;20052;-48
2021/04/21 09:03:35;;;;;;;8.70;5.00;;;20.90;42.80;;;;;;5036300;28;20025;-45
2021/04/21 09:06:02;;;;;;;7.72;4.57;;;20.90;42.80;;;;;;5036441;28;20447;-45
2021/04/21 09:08:27;;;;;;;6.85;4.40;;;21.00;42.80;;;;;;5036477;28;20041;-48
2021/04/21 09:10:53;;;;;;;6.13;4.15;;;21.00;42.70;;;;;;5036334;28;20456;-43
2021/04/21 09:13:18;;;;;;;5.82;4.25;;;21.00;42.90;;;;;;5036600;28;20026;-44
2021/04/21 09:15:44;;;;;;;6.72;4.80;;;21.10;42.90;;;;;;5035485;28;20022;-47
2021/04/21 09:18:10;;;;;;;8.25;5.22;;;21.10;42.60;;;;;;5018754;28;20025;-45
2021/04/21 09:20:44;;;;;;;6.38;4.72;;;21.10;42.40;;;;;;5036390;28;20036;-46
2021/04/21 09:23:13;;;;;;;6.82;4.63;;;21.20;42.40;;;;;;5036343;28;20117;-50
2021/04/21 09:25:45;;;;;;;11.07;4.63;;;21.10;42.00;;;;;;5036475;28;20018;-46
2021/04/21 09:28:12;;;;;;;6.97;4.40;;;21.20;42.40;;;;;;5035884;28;20029;-47
2021/04/21 09:30:43;;;;;;;8.30;6.07;;;21.20;42.40;;;;;;5018211;28;20592;-44
2021/04/21 09:33:09;;;;;;;10.05;7.15;;;21.20;40.80;;;;;;5035795;28;20447;-43
2021/04/21 09:35:44;;;;;;;11.98;7.35;;;21.10;39.80;;;;;;5035896;28;20025;-45
2021/04/21 09:38:13;;;;;;;12.75;7.00;;;21.00;39.00;;;;;;5035650;28;20112;-45
2021/04/21 09:40:41;;;;;;;10.80;4.55;;;20.90;39.30;;;;;;5036006;28;20033;-49
2021/04/21 09:43:12;;;;;;;5.05;4.05;;;20.90;40.90;;;;;;5035562;28;20032;-45
2021/04/21 09:45:44;;;;;;;6.38;3.70;;;20.90;41.80;;;;;;5036090;28;20063;-48
2021/04/21 09:48:12;;;;;;;8.43;4.22;;;21.00;42.00;;;;;;5035671;28;20321;-53
2021/04/21 09:50:38;;;;;;;6.10;4.05;;;21.00;41.90;;;;;;5035636;28;20112;-50
2021/04/21 09:53:24;;;;;;;6.88;4.28;;;21.10;41.90;;;;;;5035749;28;20325;-50
2021/04/21 09:56:22;;;;;;;5.10;3.78;;;21.10;41.90;;;;;;5035668;28;20029;-50
2021/04/21 09:58:55;;;;;;;5.93;3.75;;;21.20;42.00;;;;;;5035123;28;20432;-49
2021/04/21 10:01:25;;;;;;;7.65;4.65;;;21.20;41.80;;;;;;5035472;28;20025;-50
2021/04/21 10:04:05;;;;;;;10.48;4.32;;;21.20;42.10;;;;;;5035147;28;20116;-50
2021/04/21 10:06:31;;;;;;;4.47;3.38;;;21.20;41.60;;;;;;5035366;28;20025;-48
2021/04/21 10:08:57;;;;;;;4.05;3.25;;;21.30;41.90;;;;;;5035332;28;20028;-52
2021/04/21 10:11:22;;;;;;;6.68;3.72;;;21.30;42.40;;;;;;5035310;28;20048;-49
2021/04/21 10:13:53;;;;;;;4.40;2.92;;;21.30;43.10;;;;;;5035187;28;20359;-47
2021/04/21 10:16:20;;;;;;;6.25;3.90;;;21.40;42.60;;;;;;5017862;28;20451;-52
2021/04/21 10:18:46;;;;;;;4.35;3.45;;;21.40;42.50;;;;;;5035258;28;20033;-50
2021/04/21 10:21:13;;;;;;;4.93;2.88;;;21.40;42.30;;;;;;5034945;28;20021;-49
2021/04/21 10:23:40;;;;;;;10.15;3.28;;;21.40;42.10;;;;;;5034781;28;20348;-51
2021/04/21 10:26:07;;;;;;;4.13;3.15;;;21.50;42.00;;;;;;5034811;28;20021;-50
2021/04/21 10:28:34;;;;;;;6.75;3.13;;;21.50;42.00;;;;;;5034416;28;20391;-52
2021/04/21 10:31:05;;;;;;;5.07;3.78;;;21.50;41.90;;;;;;5034672;28;20025;-47
2021/04/21 10:33:31;;;;;;;5.35;3.25;;;21.50;41.60;;;;;;5034752;28;20033;-49
2021/04/21 10:35:57;;;;;;;4.38;3.20;;;21.50;41.80;;;;;;5034896;28;20053;-50
2021/04/21 10:38:25;;;;;;;4.45;3.20;;;21.50;41.50;;;;;;5034975;28;20021;-51
2021/04/21 10:41:11;;;;;;;4.78;3.20;;;21.50;41.60;;;;;;5034806;28;20072;-50
2021/04/21 10:43:37;;;;;;;4.97;3.03;;;21.50;41.60;;;;;;5033998;28;20061;-51
2021/04/21 10:46:03;;;;;;;4.70;3.35;;;21.60;41.70;;;;;;5017589;28;20033;-50
2021/04/21 10:48:39;;;;;;;5.32;3.28;;;21.60;41.80;;;;;;5034830;28;20030;-49
2021/04/21 10:51:43;;;;;;;3.45;3.00;;;21.60;41.80;;;;;;5034376;28;20044;-51
2021/04/21 10:54:09;;;;;;;3.50;2.92;;;21.60;41.80;;;;;;4935687;29;20046;-49
2021/04/21 10:56:36;;;;;;;5.75;3.17;;;21.60;41.80;;;;;;4935491;29;20027;-46
2021/04/21 10:59:04;;;;;;;3.83;3.00;;;21.60;41.80;;;;;;4982767;28;20033;-52
2021/04/21 11:01:38;;;;;;;4.32;3.28;;;21.60;41.80;;;;;;5034347;28;20032;-49
2021/04/21 11:04:06;;;;;;;4.25;2.92;;;21.60;41.90;;;;;;5034804;28;20427;-46
2021/04/21 11:06:42;;;;;;;4.28;3.35;;;21.70;42.00;;;;;;5034696;28;20128;-48
2021/04/21 11:09:09;;;;;;;3.85;3.03;;;21.70;41.90;;;;;;5034658;28;20037;-44
2021/04/21 11:11:43;;;;;;;3.80;3.10;;;21.70;42.20;;;;;;5034796;28;20048;-49
2021/04/21 11:14:11;;;;;;;5.30;3.70;;;21.70;41.90;;;;;;5034529;28;20032;-48
2021/04/21 11:16:38;;;;;;;5.20;3.42;;;21.70;41.90;;;;;;5034686;28;20178;-46
2021/04/21 11:19:19;;;;;;;4.43;3.92;;;21.70;41.90;;;;;;5034223;28;20029;-45
2021/04/21 11:21:46;;;;;;;5.30;3.95;;;21.70;41.90;;;;;;5034292;28;20415;-50
2021/04/21 11:24:12;;;;;;;4.95;3.97;;;21.60;41.80;;;;;;5034392;28;20432;-46
2021/04/21 11:26:45;;;;;;;5.65;4.43;;;21.70;41.90;;;;;;5034538;28;20025;-48
2021/04/21 11:29:24;;;;;;;6.90;4.65;;;21.70;42.10;;;;;;5034170;28;20021;-45
2021/04/21 11:31:50;;;;;;;5.75;4.72;;;21.70;41.90;;;;;;5034424;28;20048;-48
2021/04/21 11:34:32;;;;;;;5.38;4.13;;;21.60;42.00;;;;;;5034441;28;20037;-52
2021/04/21 11:37:18;;;;;;;5.30;4.03;;;21.70;42.10;;;;;;5034465;28;20025;-46
2021/04/21 11:39:56;;;;;;;4.95;3.80;;;21.70;42.40;;;;;;5018323;28;20040;-47
2021/04/21 11:42:35;;;;;;;4.57;4.10;;;21.70;42.40;;;;;;5038090;28;20021;-43
2021/04/21 11:45:11;;;;;;;4.78;4.25;;;21.70;42.40;;;;;;5038113;28;20411;-48
2021/04/21 11:47:55;;;;;;;5.38;4.43;;;21.70;42.50;;;;;;5038056;28;20032;-50
2021/04/21 11:50:21;;;;;;;8.55;4.88;;;21.70;42.20;;;;;;5037565;28;20047;-46
2021/04/21 11:52:53;;;;;;;6.68;4.60;;;21.70;42.20;;;;;;5038017;28;20410;-48
2021/04/21 11:55:37;;;;;;;7.47;4.78;;;21.70;42.10;;;;;;5038208;28;20017;-46
2021/04/21 11:58:19;;;;;;;5.28;4.40;;;21.70;42.10;;;;;;5037835;28;20105;-47
2021/04/21 12:00:53;;;;;;;5.75;4.25;;;21.70;42.00;;;;;;5037730;28;20099;-45
2021/04/21 12:03:35;;;;;;;9.40;5.05;;;21.70;41.80;;;;;;5037919;28;20021;-47
2021/04/21 12:06:06;;;;;;;12.00;4.78;;;21.70;41.80;;;;;;5037757;28;20064;-46
2021/04/21 12:08:34;;;;;;;8.57;4.55;;;21.70;41.70;;;;;;5037828;28;20018;-46
2021/04/21 12:11:00;;;;;;;5.30;3.80;;;21.70;41.60;;;;;;5037496;28;20128;-48
2021/04/21 12:13:31;;;;;;;6.45;3.38;;;21.70;41.90;;;;;;5037988;28;20021;-47
2021/04/21 12:15:59;;;;;;;4.07;3.22;;;21.70;41.90;;;;;;5037534;28;20084;-43
2021/04/21 12:18:33;;;;;;;3.65;3.25;;;21.70;42.00;;;;;;5037178;28;20029;-45
2021/04/21 12:21:00;;;;;;;5.15;3.13;;;21.70;41.90;;;;;;5037720;28;20025;-48
2021/04/21 12:23:33;;;;;;;4.45;3.13;;;21.70;41.80;;;;;;5037185;28;20053;-45
2021/04/21 12:25:59;;;;;;;3.55;2.88;;;21.70;41.90;;;;;;5037311;28;20026;-47
2021/04/21 12:28:25;;;;;;;7.78;3.03;;;21.70;41.90;;;;;;5037253;28;20092;-45
2021/04/21 12:30:58;;;;;;;3.40;2.63;;;21.80;41.90;;;;;;5037449;28;20407;-46
2021/04/21 12:33:25;;;;;;;3.80;3.13;;;21.70;41.90;;;;;;5037526;28;20112;-44
2021/04/21 12:35:55;;;;;;;2.72;2.50;;;21.70;41.90;;;;;;5036915;28;20052;-44
2021/04/21 12:38:29;;;;;;;5.18;2.88;;;21.70;42.20;;;;;;5037109;28;20124;-45
2021/04/21 12:40:56;;;;;;;3.22;2.38;;;21.70;42.40;;;;;;5037162;28;20090;-43
2021/04/21 12:43:27;;;;;;;6.75;2.42;;;21.80;42.50;;;;;;5037144;28;20021;-47
2021/04/21 12:45:53;;;;;;;3.97;2.60;;;21.80;42.60;;;;;;5036841;28;20396;-44
2021/04/21 12:48:20;;;;;;;2.55;1.98;;;21.80;42.50;;;;;;5036668;28;20017;-44
2021/04/21 12:50:48;;;;;;;3.92;2.15;;;21.80;42.70;;;;;;5036603;28;20047;-49
2021/04/21 12:53:17;;;;;;;2.38;1.80;;;21.80;42.90;;;;;;5037310;28;20108;-44
2021/04/21 12:55:43;;;;;;;3.30;2.42;;;21.80;42.80;;;;;;5036517;28;20510;-48
2021/04/21 12:58:09;;;;;;;3.75;2.30;;;21.80;42.80;;;;;;5037033;28;20029;-51
2021/04/21 13:00:35;;;;;;;2.90;2.10;;;21.80;42.90;;;;;;5036806;28;20057;-44
2021/04/21 13:03:01;;;;;;;3.20;2.15;;;21.80;43.00;;;;;;5036461;28;20029;-45
2021/04/21 13:05:51;;;;;;;3.13;2.35;;;21.90;42.90;;;;;;5037132;28;20107;-45
2021/04/21 13:08:28;;;;;;;4.63;2.10;;;21.90;43.00;;;;;;5036216;28;20028;-44
2021/04/21 13:10:56;;;;;;;1.98;1.63;;;21.90;42.90;;;;;;5036170;28;20025;-56
2021/04/21 13:13:26;;;;;;;6.40;2.80;;;21.90;43.00;;;;;;5036205;28;20026;-44
2021/04/21 13:15:52;;;;;;;3.33;2.33;;;21.80;43.00;;;;;;5036466;28;20025;-45
2021/04/21 13:18:18;;;;;;;3.30;2.55;;;21.90;43.10;;;;;;5036760;28;20025;-43
2021/04/21 13:20:51;;;;;;;4.70;2.97;;;21.90;43.00;;;;;;5036285;28;20428;-44